createdAt,value
2019-02-27T00:02:35.713Z,77.06
2019-02-27T00:07:39.307Z,77.25
2019-02-27T00:12:42.824Z,77.42
2019-02-27T00:17:51.122Z,77.51
2019-02-27T00:22:52.070Z,77.67
2019-02-27T00:27:55.637Z,77.63
2019-02-27T00:32:59.187Z,77.68
2019-02-27T00:38:02.787Z,77.89
2019-02-27T00:43:06.345Z,78.06
2019-02-27T00:48:09.922Z,77.77
2019-02-27T00:53:13.470Z,77.82
2019-02-27T00:58:17.078Z,77.86
2019-02-27T01:03:20.625Z,77.96
2019-02-27T01:08:27.256Z,77.82
2019-02-27T01:13:31.264Z,78.08
2019-02-27T01:18:34.802Z,77.73
2019-02-27T01:23:38.329Z,77.96
2019-02-27T01:28:45.426Z,78.36
2019-02-27T01:33:47.333Z,78.36
2019-02-27T01:38:50.924Z,78.37
2019-02-27T01:43:54.557Z,78.43
2019-02-27T01:48:58.456Z,78.67
2019-02-27T01:54:02.002Z,78.72
2019-02-27T01:59:05.606Z,79.24
2019-02-27T02:04:09.132Z,79.25
2019-02-27T02:09:34.865Z,79.50
2019-02-27T02:14:44.591Z,79.86
2019-02-27T02:19:53.973Z,79.68
2019-02-27T02:25:11.948Z,79.52
2019-02-27T02:30:44.186Z,78.87
2019-02-27T02:36:09.319Z,78.82
2019-02-27T02:41:34.082Z,79.02
2019-02-27T02:46:49.514Z,78.79
2019-02-27T02:52:11.330Z,79.34
2019-02-27T02:57:37.685Z,79.84
2019-02-27T03:03:02.424Z,78.64
2019-02-27T03:08:20.189Z,78.85
2019-02-27T03:13:41.553Z,78.64
2019-02-27T03:18:49.466Z,78.08
2019-02-27T03:23:56.146Z,78.14
2019-02-27T03:29:05.732Z,78.37
2019-02-27T03:34:15.190Z,78.65
2019-02-27T03:39:55.459Z,79.20
2019-02-27T03:45:31.802Z,80.02
2019-02-27T03:50:49.612Z,80.63
2019-02-27T03:56:18.105Z,80.52
2019-02-27T04:01:31.401Z,80.50
2019-02-27T04:06:47.059Z,80.39
2019-02-27T04:11:50.636Z,80.37
2019-02-27T04:16:54.236Z,80.68
2019-02-27T04:22:01.079Z,80.82
2019-02-27T04:27:03.091Z,81.09
2019-02-27T04:32:09.612Z,81.23
2019-02-27T04:37:11.921Z,80.76
2019-02-27T04:42:15.469Z,80.76
2019-02-27T04:47:19.077Z,80.19
2019-02-27T04:52:24.412Z,80.70
2019-02-27T04:57:27.942Z,80.33
2019-02-27T05:02:31.461Z,80.80
2019-02-27T05:07:35.090Z,80.10
2019-02-27T05:12:38.615Z,80.34
2019-02-27T05:17:42.163Z,79.67
2019-02-27T05:22:45.755Z,79.45
2019-02-27T05:27:49.276Z,79.63
2019-02-27T05:32:52.881Z,79.23
2019-02-27T05:37:56.432Z,79.24
2019-02-27T05:43:00.018Z,79.01
2019-02-27T05:48:03.566Z,78.40
2019-02-27T05:53:07.157Z,78.49
2019-02-27T05:58:10.711Z,76.99
2019-02-27T06:03:15.922Z,75.62
2019-02-27T06:08:19.578Z,77.01
2019-02-27T06:13:23.161Z,78.39
2019-02-27T06:18:26.679Z,77.96
2019-02-27T06:23:30.251Z,77.28
2019-02-27T06:28:33.799Z,77.01
2019-02-27T06:33:37.378Z,76.05
2019-02-27T06:38:40.903Z,74.34
2019-02-27T06:43:44.506Z,74.27
2019-02-27T06:48:48.054Z,74.64
2019-02-27T06:53:51.632Z,74.18
2019-02-27T06:58:55.150Z,74.02
2019-02-27T07:03:58.746Z,75.58
2019-02-27T07:09:02.268Z,73.60
2019-02-27T07:14:05.889Z,72.80
2019-02-27T07:19:09.446Z,74.13
2019-02-27T07:24:13.061Z,71.06
2019-02-27T07:29:21.739Z,73.16
2019-02-27T07:34:21.938Z,75.38
2019-02-27T07:39:25.460Z,72.50
2019-02-27T07:44:29.012Z,70.99
2019-02-27T07:49:32.589Z,68.88
2019-02-27T07:54:36.134Z,71.03
2019-02-27T07:59:39.709Z,69.73
2019-02-27T08:04:43.246Z,69.13
2019-02-27T08:09:46.810Z,68.39
2019-02-27T08:14:50.324Z,67.88
2019-02-27T08:19:53.891Z,63.30
2019-02-27T08:24:57.413Z,62.05
2019-02-27T08:30:01.009Z,58.78
2019-02-27T08:35:05.322Z,59.51
2019-02-27T08:40:11.212Z,58.28
2019-02-27T08:45:20.503Z,59.25
2019-02-27T08:50:24.883Z,51.70
2019-02-27T08:55:28.438Z,48.87
2019-02-27T09:00:33.572Z,46.33
2019-02-27T09:05:37.121Z,44.99
2019-02-27T09:10:40.732Z,37.98
2019-02-27T09:15:44.246Z,36.06
2019-02-27T09:20:47.850Z,35.47
2019-02-27T09:25:57.254Z,33.39
2019-02-27T09:30:56.946Z,46.55
2019-02-27T09:36:00.470Z,36.18
2019-02-27T09:41:04.862Z,33.53
2019-02-27T09:46:08.421Z,34.38
2019-02-27T09:51:11.983Z,34.24
2019-02-27T09:56:15.539Z,36.86
2019-02-27T10:01:19.140Z,46.12
2019-02-27T10:06:22.663Z,40.96
2019-02-27T10:11:26.251Z,33.18
2019-02-27T10:16:29.782Z,32.24
2019-02-27T10:21:33.357Z,43.67
2019-02-27T10:26:36.878Z,44.63
2019-02-27T10:31:40.494Z,42.92
2019-02-27T10:36:44.049Z,39.32
2019-02-27T10:41:50.549Z,42.13
2019-02-27T10:46:57.240Z,41.59
2019-02-27T10:51:59.738Z,43.76
2019-02-27T10:57:03.282Z,43.08
2019-02-27T11:02:09.731Z,40.27
2019-02-27T11:07:13.218Z,41.21
2019-02-27T11:12:17.764Z,41.34
2019-02-27T11:17:21.321Z,40.68
2019-02-27T11:22:24.951Z,39.65
2019-02-27T11:27:28.470Z,38.37
2019-02-27T11:32:32.056Z,37.36
2019-02-27T11:37:35.614Z,37.19
2019-02-27T11:42:39.202Z,35.36
2019-02-27T11:47:47.736Z,34.70
2019-02-27T11:52:49.224Z,34.86
2019-02-27T11:57:52.991Z,34.82
2019-02-27T12:02:56.708Z,34.55
2019-02-27T12:08:00.233Z,34.42
2019-02-27T12:13:03.947Z,33.53
2019-02-27T12:18:07.476Z,33.90
2019-02-27T12:23:11.104Z,33.77
2019-02-27T12:28:18.263Z,34.73
2019-02-27T12:33:20.565Z,33.27
2019-02-27T12:38:24.078Z,33.48
2019-02-27T12:43:27.675Z,33.46
2019-02-27T12:48:31.187Z,31.98
2019-02-27T12:53:34.780Z,30.54
2019-02-27T12:58:38.324Z,30.78
2019-02-27T13:03:42.999Z,30.09
2019-02-27T13:08:46.641Z,28.69
2019-02-27T13:13:50.242Z,29.36
2019-02-27T13:18:53.749Z,30.44
2019-02-27T13:23:57.329Z,30.39
2019-02-27T13:29:01.008Z,29.37
2019-02-27T13:34:04.888Z,29.85
2019-02-27T13:39:08.600Z,28.28
2019-02-27T13:44:12.158Z,28.65
2019-02-27T13:49:15.698Z,29.29
2019-02-27T13:54:19.271Z,28.79
2019-02-27T13:59:22.793Z,28.77
2019-02-27T14:04:26.803Z,28.52
2019-02-27T14:09:30.347Z,28.07
2019-02-27T14:14:33.940Z,28.16
2019-02-27T14:19:37.567Z,28.71
2019-02-27T14:24:41.202Z,29.06
2019-02-27T14:29:44.997Z,29.63
2019-02-27T14:34:48.588Z,29.88
2019-02-27T14:39:52.125Z,30.03
2019-02-27T14:44:55.709Z,30.46
2019-02-27T14:50:00.147Z,31.44
2019-02-27T14:55:04.449Z,31.60
2019-02-27T15:00:24.376Z,32.32
2019-02-27T15:05:27.645Z,32.42
2019-02-27T15:10:31.218Z,33.16
2019-02-27T15:15:34.763Z,34.33
2019-02-27T15:20:40.983Z,34.49
2019-02-27T15:25:43.612Z,35.08
2019-02-27T15:30:47.488Z,35.96
2019-02-27T15:35:55.032Z,37.02
2019-02-27T15:40:56.320Z,38.89
2019-02-27T15:45:59.842Z,40.36
2019-02-27T15:51:03.420Z,42.51
2019-02-27T15:56:08.577Z,44.21
2019-02-27T16:01:12.820Z,46.33
2019-02-27T16:06:16.335Z,47.32
2019-02-27T16:11:19.950Z,49.07
2019-02-27T16:16:23.523Z,50.92
2019-02-27T16:21:28.713Z,52.23
2019-02-27T16:26:32.258Z,53.12
2019-02-27T16:31:37.118Z,53.74
2019-02-27T16:36:41.193Z,54.64
2019-02-27T16:41:45.132Z,55.30
2019-02-27T16:46:48.816Z,55.67
2019-02-27T16:51:52.395Z,56.34
2019-02-27T16:56:57.902Z,56.53
2019-02-27T17:02:03.940Z,57.28
2019-02-27T17:07:06.513Z,57.82
2019-02-27T17:12:10.306Z,58.04
2019-02-27T17:17:16.125Z,57.98
2019-02-27T17:22:19.170Z,58.71
2019-02-27T17:27:22.722Z,58.92
2019-02-27T17:32:27.486Z,59.34
2019-02-27T17:37:31.619Z,59.43
2019-02-27T17:42:35.222Z,59.94
2019-02-27T17:47:38.870Z,59.80
2019-02-27T17:52:42.452Z,60.34
2019-02-27T17:57:46.381Z,60.55
2019-02-27T18:02:50.270Z,60.99
2019-02-27T18:07:53.791Z,61.52
2019-02-27T18:13:01.240Z,61.58
2019-02-27T18:18:07.091Z,61.89
2019-02-27T18:23:11.706Z,62.18
2019-02-27T18:28:15.411Z,63.23
2019-02-27T18:33:19.042Z,63.23
2019-02-27T18:38:27.507Z,63.46
2019-02-27T18:43:30.146Z,64.09
2019-02-27T18:48:33.334Z,64.66
2019-02-27T18:53:37.020Z,64.96
2019-02-27T18:58:40.567Z,64.83
2019-02-27T19:03:44.244Z,65.24
2019-02-27T19:08:47.836Z,65.35
2019-02-27T19:13:53.105Z,65.31
2019-02-27T19:18:56.835Z,65.56
2019-02-27T19:24:00.424Z,65.53
2019-02-27T19:29:05.009Z,64.99
2019-02-27T19:34:10.329Z,63.79
2019-02-27T19:39:14.152Z,62.98
2019-02-27T19:44:17.769Z,61.39
2019-02-27T19:49:21.439Z,60.42
2019-02-27T19:54:25.047Z,58.92
2019-02-27T19:59:29.575Z,58.00
2019-02-27T20:04:33.195Z,57.90
2019-02-27T20:09:36.973Z,57.93
2019-02-27T20:14:40.628Z,57.71
2019-02-27T20:19:44.349Z,57.63
2019-02-27T20:24:47.998Z,57.19
2019-02-27T20:29:51.699Z,57.10
2019-02-27T20:34:55.299Z,57.11
2019-02-27T20:39:59.500Z,57.62
2019-02-27T20:45:03.433Z,57.51
2019-02-27T20:50:12.779Z,58.32
2019-02-27T20:55:16.425Z,58.07
2019-02-27T21:00:24.100Z,58.20
2019-02-27T21:05:27.958Z,58.14
2019-02-27T21:10:33.124Z,57.61
2019-02-27T21:15:36.655Z,58.06
2019-02-27T21:20:42.199Z,58.30
2019-02-27T21:25:50.245Z,58.27
2019-02-27T21:30:53.911Z,58.33
2019-02-27T21:36:02.485Z,58.27
2019-02-27T21:41:03.224Z,58.66
2019-02-27T21:46:08.371Z,58.92
2019-02-27T21:51:13.696Z,59.45
2019-02-27T21:56:18.042Z,59.53
2019-02-27T22:01:22.639Z,59.91
2019-02-27T22:06:27.442Z,59.94
2019-02-27T22:11:31.672Z,60.08
2019-02-27T22:16:35.334Z,60.54
2019-02-27T22:21:38.910Z,59.46
2019-02-27T22:26:42.430Z,58.92
2019-02-27T22:31:46.395Z,58.82
2019-02-27T22:36:49.936Z,59.78
2019-02-27T22:41:54.116Z,59.19
2019-02-27T22:46:57.639Z,58.99
2019-02-27T22:52:01.234Z,59.17
2019-02-27T22:57:05.354Z,59.11
2019-02-27T23:02:08.941Z,59.88
2019-02-27T23:07:12.537Z,59.70
2019-02-27T23:12:16.112Z,59.45
2019-02-27T23:17:19.665Z,59.72
2019-02-27T23:22:23.598Z,59.55
2019-02-27T23:27:27.161Z,59.51
2019-02-27T23:32:30.697Z,59.29
2019-02-27T23:37:34.546Z,59.01
2019-02-27T23:42:38.107Z,58.79
2019-02-27T23:47:41.622Z,59.41
2019-02-27T23:52:45.181Z,60.76
2019-02-27T23:57:48.708Z,60.83
